sensor_id;sensor_type;location;lat;lon;timestamp;pressure;altitude;pressure_sealevel;temperature;humidity
61478;BME280;47345;52.334;10.392;2024-03-07T00:02:17;101934.42;;;2.49;83.96
61478;BME280;47345;52.334;10.392;2024-03-07T00:04:48;101932.63;;;2.45;84.23
61478;BME280;47345;52.334;10.392;2024-03-07T00:07:18;101931.92;;;2.41;84.16
61478;BME280;47345;52.334;10.392;2024-03-07T00:09:50;101930.34;;;2.35;84.51
61478;BME280;47345;52.334;10.392;2024-03-07T00:12:23;101928.42;;;2.30;84.68
61478;BME280;47345;52.334;10.392;2024-03-07T00:14:53;101929.73;;;2.27;85.32
61478;BME280;47345;52.334;10.392;2024-03-07T00:17:24;101928.32;;;2.25;85.40
61478;BME280;47345;52.334;10.392;2024-03-07T00:19:55;101929.11;;;2.24;85.56
61478;BME280;47345;52.334;10.392;2024-03-07T00:22:25;101931.27;;;2.26;85.95
61478;BME280;47345;52.334;10.392;2024-03-07T00:24:59;101929.33;;;2.28;85.81
61478;BME280;47345;52.334;10.392;2024-03-07T00:27:29;101932.67;;;2.29;85.97
61478;BME280;47345;52.334;10.392;2024-03-07T00:30:01;101934.80;;;2.29;85.70
61478;BME280;47345;52.334;10.392;2024-03-07T00:32:31;101937.55;;;2.29;85.36
61478;BME280;47345;52.334;10.392;2024-03-07T00:35:06;101940.63;;;2.26;85.42
61478;BME280;47345;52.334;10.392;2024-03-07T00:37:38;101938.44;;;2.22;85.17
61478;BME280;47345;52.334;10.392;2024-03-07T00:40:10;101936.95;;;2.18;85.61
61478;BME280;47345;52.334;10.392;2024-03-07T00:42:41;101937.95;;;2.17;85.46
61478;BME280;47345;52.334;10.392;2024-03-07T00:45:12;101929.04;;;2.16;85.73
61478;BME280;47345;52.334;10.392;2024-03-07T00:47:43;101932.52;;;2.15;85.47
61478;BME280;47345;52.334;10.392;2024-03-07T00:50:14;101931.95;;;2.13;85.41
61478;BME280;47345;52.334;10.392;2024-03-07T00:52:44;101926.13;;;2.12;85.53
61478;BME280;47345;52.334;10.392;2024-03-07T00:55:15;101924.90;;;2.11;85.87
61478;BME280;47345;52.334;10.392;2024-03-07T00:57:45;101925.75;;;2.12;85.80
61478;BME280;47345;52.334;10.392;2024-03-07T01:00:18;101924.72;;;2.11;85.80
61478;BME280;47345;52.334;10.392;2024-03-07T01:02:50;101922.70;;;2.10;85.80
61478;BME280;47345;52.334;10.392;2024-03-07T01:05:22;101917.34;;;2.11;85.85
61478;BME280;47345;52.334;10.392;2024-03-07T01:07:53;101914.11;;;2.13;86.20
61478;BME280;47345;52.334;10.392;2024-03-07T01:10:25;101914.35;;;2.14;86.53
61478;BME280;47345;52.334;10.392;2024-03-07T01:12:55;101910.70;;;2.15;87.10
61478;BME280;47345;52.334;10.392;2024-03-07T01:15:31;101913.77;;;2.22;87.27
61478;BME280;47345;52.334;10.392;2024-03-07T01:18:02;101918.41;;;2.27;87.39
61478;BME280;47345;52.334;10.392;2024-03-07T01:20:33;101917.63;;;2.32;87.47
61478;BME280;47345;52.334;10.392;2024-03-07T01:23:05;101919.05;;;2.37;87.32
61478;BME280;47345;52.334;10.392;2024-03-07T01:25:37;101920.55;;;2.41;87.43
61478;BME280;47345;52.334;10.392;2024-03-07T01:28:08;101920.63;;;2.44;87.30
61478;BME280;47345;52.334;10.392;2024-03-07T01:30:41;101918.98;;;2.47;87.70
61478;BME280;47345;52.334;10.392;2024-03-07T01:33:11;101915.88;;;2.52;87.53
61478;BME280;47345;52.334;10.392;2024-03-07T01:35:42;101915.97;;;2.56;87.21
61478;BME280;47345;52.334;10.392;2024-03-07T01:38:13;101908.77;;;2.58;87.36
61478;BME280;47345;52.334;10.392;2024-03-07T01:40:44;101913.42;;;2.62;87.42
61478;BME280;47345;52.334;10.392;2024-03-07T01:43:15;101912.11;;;2.70;87.31
61478;BME280;47345;52.334;10.392;2024-03-07T01:45:46;101910.88;;;2.71;87.49
61478;BME280;47345;52.334;10.392;2024-03-07T01:48:24;101911.91;;;2.76;87.45
61478;BME280;47345;52.334;10.392;2024-03-07T01:50:55;101909.24;;;2.80;87.31
61478;BME280;47345;52.334;10.392;2024-03-07T01:53:28;101907.66;;;2.84;87.13
61478;BME280;47345;52.334;10.392;2024-03-07T01:56:00;101905.20;;;2.86;87.07
61478;BME280;47345;52.334;10.392;2024-03-07T01:58:32;101905.44;;;2.87;87.39
61478;BME280;47345;52.334;10.392;2024-03-07T02:01:03;101899.57;;;2.86;87.41
61478;BME280;47345;52.334;10.392;2024-03-07T02:03:34;101904.06;;;2.88;87.79
61478;BME280;47345;52.334;10.392;2024-03-07T02:06:06;101901.14;;;2.91;88.01
61478;BME280;47345;52.334;10.392;2024-03-07T02:08:36;101896.80;;;2.93;88.28
61478;BME280;47345;52.334;10.392;2024-03-07T02:11:07;101895.88;;;2.96;88.16
61478;BME280;47345;52.334;10.392;2024-03-07T02:13:38;101892.95;;;2.99;88.16
61478;BME280;47345;52.334;10.392;2024-03-07T02:16:09;101888.64;;;3.01;88.20
61478;BME280;47345;52.334;10.392;2024-03-07T02:18:39;101885.77;;;3.03;88.33
61478;BME280;47345;52.334;10.392;2024-03-07T02:21:10;101884.71;;;3.05;88.40
61478;BME280;47345;52.334;10.392;2024-03-07T02:23:41;101886.09;;;3.05;88.65
61478;BME280;47345;52.334;10.392;2024-03-07T02:26:11;101886.45;;;3.05;88.41
61478;BME280;47345;52.334;10.392;2024-03-07T02:28:42;101885.55;;;3.05;88.79
61478;BME280;47345;52.334;10.392;2024-03-07T02:31:13;101889.22;;;3.09;88.54
61478;BME280;47345;52.334;10.392;2024-03-07T02:33:43;101889.28;;;3.13;88.91
61478;BME280;47345;52.334;10.392;2024-03-07T02:36:14;101886.88;;;3.17;88.85
61478;BME280;47345;52.334;10.392;2024-03-07T02:38:44;101881.14;;;3.21;88.90
61478;BME280;47345;52.334;10.392;2024-03-07T02:41:15;101879.30;;;3.24;88.72
61478;BME280;47345;52.334;10.392;2024-03-07T02:43:45;101880.15;;;3.27;88.87
61478;BME280;47345;52.334;10.392;2024-03-07T02:46:16;101883.42;;;3.31;88.93
61478;BME280;47345;52.334;10.392;2024-03-07T02:48:47;101880.41;;;3.34;88.74
61478;BME280;47345;52.334;10.392;2024-03-07T02:51:17;101880.54;;;3.37;88.72
61478;BME280;47345;52.334;10.392;2024-03-07T02:53:48;101881.48;;;3.41;88.89
61478;BME280;47345;52.334;10.392;2024-03-07T02:56:19;101880.55;;;3.43;88.68
61478;BME280;47345;52.334;10.392;2024-03-07T02:58:49;101876.21;;;3.45;88.58
61478;BME280;47345;52.334;10.392;2024-03-07T03:01:20;101874.57;;;3.46;88.72
61478;BME280;47345;52.334;10.392;2024-03-07T03:03:51;101867.63;;;3.45;88.69
61478;BME280;47345;52.334;10.392;2024-03-07T03:06:21;101867.46;;;3.45;88.72
61478;BME280;47345;52.334;10.392;2024-03-07T03:08:52;101871.70;;;3.43;88.87
61478;BME280;47345;52.334;10.392;2024-03-07T03:11:23;101866.05;;;3.42;88.91
61478;BME280;47345;52.334;10.392;2024-03-07T03:13:55;101865.40;;;3.41;89.24
61478;BME280;47345;52.334;10.392;2024-03-07T03:16:25;101858.98;;;3.40;89.09
61478;BME280;47345;52.334;10.392;2024-03-07T03:19:15;101860.30;;;3.39;89.22
61478;BME280;47345;52.334;10.392;2024-03-07T03:21:46;101859.58;;;3.39;89.09
61478;BME280;47345;52.334;10.392;2024-03-07T03:24:16;101858.73;;;3.41;89.29
61478;BME280;47345;52.334;10.392;2024-03-07T03:26:47;101856.52;;;3.44;89.34
61478;BME280;47345;52.334;10.392;2024-03-07T03:29:17;101851.85;;;3.46;89.44
61478;BME280;47345;52.334;10.392;2024-03-07T03:31:48;101854.13;;;3.50;89.63
61478;BME280;47345;52.334;10.392;2024-03-07T03:34:19;101857.98;;;3.56;89.28
61478;BME280;47345;52.334;10.392;2024-03-07T03:36:50;101857.82;;;3.60;89.28
61478;BME280;47345;52.334;10.392;2024-03-07T03:39:20;101847.69;;;3.62;89.01
61478;BME280;47345;52.334;10.392;2024-03-07T03:41:51;101847.83;;;3.65;89.30
61478;BME280;47345;52.334;10.392;2024-03-07T03:44:21;101851.28;;;3.69;89.21
61478;BME280;47345;52.334;10.392;2024-03-07T03:46:52;101854.52;;;3.73;89.38
61478;BME280;47345;52.334;10.392;2024-03-07T03:49:22;101854.46;;;3.78;89.17
61478;BME280;47345;52.334;10.392;2024-03-07T03:51:53;101854.98;;;3.82;89.44
61478;BME280;47345;52.334;10.392;2024-03-07T03:54:24;101855.77;;;3.88;89.27
61478;BME280;47345;52.334;10.392;2024-03-07T03:56:54;101854.30;;;3.90;88.89
61478;BME280;47345;52.334;10.392;2024-03-07T03:59:24;101852.22;;;3.93;88.78
61478;BME280;47345;52.334;10.392;2024-03-07T04:01:55;101850.73;;;3.94;88.86
61478;BME280;47345;52.334;10.392;2024-03-07T04:04:25;101851.95;;;3.96;88.83
61478;BME280;47345;52.334;10.392;2024-03-07T04:06:56;101854.44;;;3.99;88.65
61478;BME280;47345;52.334;10.392;2024-03-07T04:09:26;101852.54;;;4.00;88.72
61478;BME280;47345;52.334;10.392;2024-03-07T04:11:57;101849.52;;;4.03;88.95
61478;BME280;47345;52.334;10.392;2024-03-07T04:14:28;101850.52;;;4.07;89.00
61478;BME280;47345;52.334;10.392;2024-03-07T04:17:02;101851.56;;;4.09;88.88
61478;BME280;47345;52.334;10.392;2024-03-07T04:19:33;101846.02;;;4.12;89.03
61478;BME280;47345;52.334;10.392;2024-03-07T04:22:03;101850.85;;;4.17;89.27
61478;BME280;47345;52.334;10.392;2024-03-07T04:24:34;101851.10;;;4.22;89.38
61478;BME280;47345;52.334;10.392;2024-03-07T04:27:05;101843.08;;;4.25;89.26
61478;BME280;47345;52.334;10.392;2024-03-07T04:29:36;101841.93;;;4.30;89.46
61478;BME280;47345;52.334;10.392;2024-03-07T04:32:07;101835.40;;;4.32;89.28
61478;BME280;47345;52.334;10.392;2024-03-07T04:34:38;101841.20;;;4.36;89.23
61478;BME280;47345;52.334;10.392;2024-03-07T04:37:08;101839.48;;;4.37;89.23
61478;BME280;47345;52.334;10.392;2024-03-07T04:39:39;101843.17;;;4.38;88.90
61478;BME280;47345;52.334;10.392;2024-03-07T04:42:09;101842.29;;;4.38;88.85
61478;BME280;47345;52.334;10.392;2024-03-07T04:44:40;101842.27;;;4.38;89.06
61478;BME280;47345;52.334;10.392;2024-03-07T04:47:10;101839.55;;;4.38;89.10
61478;BME280;47345;52.334;10.392;2024-03-07T04:49:42;101843.23;;;4.41;88.99
61478;BME280;47345;52.334;10.392;2024-03-07T04:52:13;101844.64;;;4.44;89.22
61478;BME280;47345;52.334;10.392;2024-03-07T04:54:43;101840.16;;;4.46;89.07
61478;BME280;47345;52.334;10.392;2024-03-07T04:57:14;101844.42;;;4.47;89.19
61478;BME280;47345;52.334;10.392;2024-03-07T04:59:44;101841.33;;;4.47;89.18
61478;BME280;47345;52.334;10.392;2024-03-07T05:02:15;101842.23;;;4.47;89.18
61478;BME280;47345;52.334;10.392;2024-03-07T05:04:45;101842.98;;;4.44;89.09
61478;BME280;47345;52.334;10.392;2024-03-07T05:07:19;101842.08;;;4.45;89.42
61478;BME280;47345;52.334;10.392;2024-03-07T05:09:49;101841.81;;;4.43;89.49
61478;BME280;47345;52.334;10.392;2024-03-07T05:12:19;101839.23;;;4.42;89.58
61478;BME280;47345;52.334;10.392;2024-03-07T05:14:50;101840.84;;;4.42;89.81
61478;BME280;47345;52.334;10.392;2024-03-07T05:17:20;101841.25;;;4.41;89.74
61478;BME280;47345;52.334;10.392;2024-03-07T05:19:51;101846.70;;;4.43;90.11
61478;BME280;47345;52.334;10.392;2024-03-07T05:22:21;101843.59;;;4.46;90.15
61478;BME280;47345;52.334;10.392;2024-03-07T05:24:55;101846.62;;;4.48;90.17
61478;BME280;47345;52.334;10.392;2024-03-07T05:27:26;101843.74;;;4.50;90.29
61478;BME280;47345;52.334;10.392;2024-03-07T05:29:59;101847.45;;;4.53;90.42
61478;BME280;47345;52.334;10.392;2024-03-07T05:32:29;101845.86;;;4.51;90.38
61478;BME280;47345;52.334;10.392;2024-03-07T05:35:00;101849.78;;;4.49;90.38
61478;BME280;47345;52.334;10.392;2024-03-07T05:37:31;101850.30;;;4.46;90.38
61478;BME280;47345;52.334;10.392;2024-03-07T05:40:02;101850.23;;;4.44;90.84
61478;BME280;47345;52.334;10.392;2024-03-07T05:42:33;101852.20;;;4.44;91.01
61478;BME280;47345;52.334;10.392;2024-03-07T05:45:05;101852.71;;;4.45;91.21
61478;BME280;47345;52.334;10.392;2024-03-07T05:47:37;101854.05;;;4.48;91.63
61478;BME280;47345;52.334;10.392;2024-03-07T05:50:09;101857.50;;;4.52;91.62
61478;BME280;47345;52.334;10.392;2024-03-07T05:52:40;101853.75;;;4.55;91.61
61478;BME280;47345;52.334;10.392;2024-03-07T05:55:10;101859.39;;;4.61;91.92
61478;BME280;47345;52.334;10.392;2024-03-07T05:57:41;101856.06;;;4.66;92.10
61478;BME280;47345;52.334;10.392;2024-03-07T06:00:16;101860.84;;;4.69;91.92
61478;BME280;47345;52.334;10.392;2024-03-07T06:02:57;101860.36;;;4.72;92.15
61478;BME280;47345;52.334;10.392;2024-03-07T06:05:28;101860.81;;;4.75;92.25
61478;BME280;47345;52.334;10.392;2024-03-07T06:07:58;101861.16;;;4.77;92.34
61478;BME280;47345;52.334;10.392;2024-03-07T06:10:29;101863.50;;;4.79;92.45
61478;BME280;47345;52.334;10.392;2024-03-07T06:12:59;101866.39;;;4.79;92.43
61478;BME280;47345;52.334;10.392;2024-03-07T06:15:42;101860.46;;;4.81;92.60
61478;BME280;47345;52.334;10.392;2024-03-07T06:18:13;101862.91;;;4.83;92.70
61478;BME280;47345;52.334;10.392;2024-03-07T06:20:44;101857.84;;;4.84;92.73
61478;BME280;47345;52.334;10.392;2024-03-07T06:23:15;101862.74;;;4.89;92.70
61478;BME280;47345;52.334;10.392;2024-03-07T06:25:46;101861.66;;;4.91;92.56
61478;BME280;47345;52.334;10.392;2024-03-07T06:28:19;101865.17;;;4.93;92.72
61478;BME280;47345;52.334;10.392;2024-03-07T06:30:50;101865.84;;;4.93;92.71
61478;BME280;47345;52.334;10.392;2024-03-07T06:33:20;101871.13;;;4.94;92.60
61478;BME280;47345;52.334;10.392;2024-03-07T06:35:55;101872.31;;;4.97;92.85
61478;BME280;47345;52.334;10.392;2024-03-07T06:38:26;101876.23;;;5.00;92.87
61478;BME280;47345;52.334;10.392;2024-03-07T06:40:57;101874.73;;;5.02;92.91
61478;BME280;47345;52.334;10.392;2024-03-07T06:43:27;101876.88;;;5.07;92.93
61478;BME280;47345;52.334;10.392;2024-03-07T06:45:58;101874.42;;;5.08;92.61
61478;BME280;47345;52.334;10.392;2024-03-07T06:48:29;101873.34;;;5.10;92.55
61478;BME280;47345;52.334;10.392;2024-03-07T06:50:59;101869.29;;;5.13;92.69
61478;BME280;47345;52.334;10.392;2024-03-07T06:53:30;101873.02;;;5.15;92.66
61478;BME280;47345;52.334;10.392;2024-03-07T06:56:01;101878.09;;;5.19;92.62
61478;BME280;47345;52.334;10.392;2024-03-07T06:58:31;101875.90;;;5.23;92.49
61478;BME280;47345;52.334;10.392;2024-03-07T07:01:02;101873.85;;;5.28;92.36
61478;BME280;47345;52.334;10.392;2024-03-07T07:03:36;101875.84;;;5.31;92.21
61478;BME280;47345;52.334;10.392;2024-03-07T07:06:07;101875.63;;;5.34;92.17
61478;BME280;47345;52.334;10.392;2024-03-07T07:08:38;101880.39;;;5.37;92.01
61478;BME280;47345;52.334;10.392;2024-03-07T07:11:08;101879.81;;;5.39;91.85
61478;BME280;47345;52.334;10.392;2024-03-07T07:13:41;101883.45;;;5.43;91.88
61478;BME280;47345;52.334;10.392;2024-03-07T07:16:12;101883.41;;;5.47;91.81
61478;BME280;47345;52.334;10.392;2024-03-07T07:18:42;101883.80;;;5.51;91.65
61478;BME280;47345;52.334;10.392;2024-03-07T07:21:13;101890.59;;;5.56;91.68
61478;BME280;47345;52.334;10.392;2024-03-07T07:23:45;101889.45;;;5.58;91.30
61478;BME280;47345;52.334;10.392;2024-03-07T07:26:15;101890.10;;;5.59;91.22
61478;BME280;47345;52.334;10.392;2024-03-07T07:28:46;101888.60;;;5.59;91.26
61478;BME280;47345;52.334;10.392;2024-03-07T07:31:16;101886.55;;;5.62;91.12
61478;BME280;47345;52.334;10.392;2024-03-07T07:33:46;101885.64;;;5.64;91.09
61478;BME280;47345;52.334;10.392;2024-03-07T07:36:17;101883.48;;;5.70;91.22
61478;BME280;47345;52.334;10.392;2024-03-07T07:38:48;101883.21;;;5.74;90.95
61478;BME280;47345;52.334;10.392;2024-03-07T07:41:18;101878.60;;;5.77;90.76
61478;BME280;47345;52.334;10.392;2024-03-07T07:43:48;101875.70;;;5.81;90.81
61478;BME280;47345;52.334;10.392;2024-03-07T07:46:19;101879.98;;;5.85;90.78
61478;BME280;47345;52.334;10.392;2024-03-07T07:48:50;101879.23;;;5.87;90.82
61478;BME280;47345;52.334;10.392;2024-03-07T07:51:20;101874.24;;;5.92;90.93
61478;BME280;47345;52.334;10.392;2024-03-07T07:53:51;101876.60;;;6.04;90.82
61478;BME280;47345;52.334;10.392;2024-03-07T07:56:23;101875.58;;;6.20;90.69
61478;BME280;47345;52.334;10.392;2024-03-07T07:58:57;101880.52;;;6.24;90.23
61478;BME280;47345;52.334;10.392;2024-03-07T08:01:28;101878.27;;;6.19;90.06
61478;BME280;47345;52.334;10.392;2024-03-07T08:03:58;101877.04;;;6.13;89.98
61478;BME280;47345;52.334;10.392;2024-03-07T08:06:29;101879.10;;;6.10;90.22
61478;BME280;47345;52.334;10.392;2024-03-07T08:09:00;101879.94;;;6.09;90.16
61478;BME280;47345;52.334;10.392;2024-03-07T08:11:31;101877.58;;;6.18;90.35
61478;BME280;47345;52.334;10.392;2024-03-07T08:14:02;101874.54;;;6.27;90.48
61478;BME280;47345;52.334;10.392;2024-03-07T08:16:32;101875.05;;;6.33;90.21
61478;BME280;47345;52.334;10.392;2024-03-07T08:19:03;101871.32;;;6.38;89.81
61478;BME280;47345;52.334;10.392;2024-03-07T08:21:33;101876.71;;;6.37;89.48
61478;BME280;47345;52.334;10.392;2024-03-07T08:24:04;101873.30;;;6.34;89.40
61478;BME280;47345;52.334;10.392;2024-03-07T08:26:40;101870.23;;;6.34;89.31
61478;BME280;47345;52.334;10.392;2024-03-07T08:29:13;101876.27;;;6.39;89.50
61478;BME280;47345;52.334;10.392;2024-03-07T08:31:44;101874.12;;;6.44;89.16
61478;BME280;47345;52.334;10.392;2024-03-07T08:34:14;101873.58;;;6.48;88.97
61478;BME280;47345;52.334;10.392;2024-03-07T08:36:44;101874.69;;;6.50;88.69
61478;BME280;47345;52.334;10.392;2024-03-07T08:39:16;101878.13;;;6.48;88.30
61478;BME280;47345;52.334;10.392;2024-03-07T08:41:48;101874.16;;;6.42;88.04
61478;BME280;47345;52.334;10.392;2024-03-07T08:44:19;101876.74;;;6.45;88.07
61478;BME280;47345;52.334;10.392;2024-03-07T08:46:49;101878.05;;;6.53;88.26
61478;BME280;47345;52.334;10.392;2024-03-07T08:49:20;101875.13;;;6.53;87.85
61478;BME280;47345;52.334;10.392;2024-03-07T08:51:51;101879.50;;;6.55;87.47
61478;BME280;47345;52.334;10.392;2024-03-07T08:54:22;101875.81;;;6.57;87.64
61478;BME280;47345;52.334;10.392;2024-03-07T08:56:53;101876.60;;;6.57;87.39
61478;BME280;47345;52.334;10.392;2024-03-07T08:59:23;101877.67;;;6.55;87.49
61478;BME280;47345;52.334;10.392;2024-03-07T09:01:54;101875.83;;;6.51;87.22
61478;BME280;47345;52.334;10.392;2024-03-07T09:04:24;101872.43;;;6.49;87.10
61478;BME280;47345;52.334;10.392;2024-03-07T09:06:55;101876.10;;;6.52;87.44
61478;BME280;47345;52.334;10.392;2024-03-07T09:09:25;101875.65;;;6.60;87.40
61478;BME280;47345;52.334;10.392;2024-03-07T09:11:56;101874.42;;;6.66;87.19
61478;BME280;47345;52.334;10.392;2024-03-07T09:14:27;101878.10;;;6.67;86.59
61478;BME280;47345;52.334;10.392;2024-03-07T09:16:57;101880.88;;;6.62;86.42
61478;BME280;47345;52.334;10.392;2024-03-07T09:19:28;101885.23;;;6.51;86.61
61478;BME280;47345;52.334;10.392;2024-03-07T09:21:58;101881.40;;;6.42;87.13
61478;BME280;47345;52.334;10.392;2024-03-07T09:24:29;101881.12;;;6.42;87.62
61478;BME280;47345;52.334;10.392;2024-03-07T09:27:00;101879.29;;;6.42;88.05
61478;BME280;47345;52.334;10.392;2024-03-07T09:29:31;101881.41;;;6.50;88.49
61478;BME280;47345;52.334;10.392;2024-03-07T09:32:03;101882.14;;;6.55;88.41
61478;BME280;47345;52.334;10.392;2024-03-07T09:34:37;101880.98;;;6.60;88.01
61478;BME280;47345;52.334;10.392;2024-03-07T09:37:08;101878.80;;;6.65;87.99
61478;BME280;47345;52.334;10.392;2024-03-07T09:39:39;101877.55;;;6.74;88.31
61478;BME280;47345;52.334;10.392;2024-03-07T09:42:10;101875.83;;;6.79;87.84
61478;BME280;47345;52.334;10.392;2024-03-07T09:44:43;101875.98;;;6.81;87.40
61478;BME280;47345;52.334;10.392;2024-03-07T09:47:16;101880.52;;;6.83;87.27
61478;BME280;47345;52.334;10.392;2024-03-07T09:49:47;101880.59;;;6.80;86.72
61478;BME280;47345;52.334;10.392;2024-03-07T09:52:18;101880.45;;;6.80;86.97
61478;BME280;47345;52.334;10.392;2024-03-07T09:54:50;101880.94;;;6.84;86.87
61478;BME280;47345;52.334;10.392;2024-03-07T09:57:20;101877.20;;;6.85;86.68
61478;BME280;47345;52.334;10.392;2024-03-07T09:59:54;101880.47;;;6.85;86.46
61478;BME280;47345;52.334;10.392;2024-03-07T10:02:25;101879.33;;;6.91;86.67
61478;BME280;47345;52.334;10.392;2024-03-07T10:04:58;101878.83;;;7.07;86.60
61478;BME280;47345;52.334;10.392;2024-03-07T10:07:29;101874.99;;;7.19;85.35
61478;BME280;47345;52.334;10.392;2024-03-07T10:10:00;101873.09;;;7.31;84.62
61478;BME280;47345;52.334;10.392;2024-03-07T10:12:39;101871.17;;;7.45;84.56
61478;BME280;47345;52.334;10.392;2024-03-07T10:15:11;101867.29;;;7.63;84.18
61478;BME280;47345;52.334;10.392;2024-03-07T10:17:44;101868.30;;;7.85;83.75
61478;BME280;47345;52.334;10.392;2024-03-07T10:20:19;101864.77;;;8.01;82.46
61478;BME280;47345;52.334;10.392;2024-03-07T10:22:52;101864.48;;;8.11;80.87
61478;BME280;47345;52.334;10.392;2024-03-07T10:25:23;101862.77;;;8.18;80.28
61478;BME280;47345;52.334;10.392;2024-03-07T10:27:56;101860.87;;;8.26;79.77
61478;BME280;47345;52.334;10.392;2024-03-07T10:30:28;101859.29;;;8.34;79.76
61478;BME280;47345;52.334;10.392;2024-03-07T10:32:59;101855.85;;;8.44;78.87
61478;BME280;47345;52.334;10.392;2024-03-07T10:35:31;101851.03;;;8.48;77.44
61478;BME280;47345;52.334;10.392;2024-03-07T10:38:02;101853.79;;;8.47;77.24
61478;BME280;47345;52.334;10.392;2024-03-07T10:40:37;101851.06;;;8.53;77.26
61478;BME280;47345;52.334;10.392;2024-03-07T10:43:12;101853.37;;;8.61;76.79
61478;BME280;47345;52.334;10.392;2024-03-07T10:45:46;101853.49;;;8.60;76.63
61478;BME280;47345;52.334;10.392;2024-03-07T10:48:18;101849.38;;;8.59;76.05
61478;BME280;47345;52.334;10.392;2024-03-07T10:51:02;101845.20;;;8.73;75.83
61478;BME280;47345;52.334;10.392;2024-03-07T10:53:40;101840.46;;;8.93;75.14
61478;BME280;47345;52.334;10.392;2024-03-07T10:56:21;101838.13;;;9.12;74.02
61478;BME280;47345;52.334;10.392;2024-03-07T10:59:01;101836.63;;;9.19;72.32
61478;BME280;47345;52.334;10.392;2024-03-07T11:01:43;101835.20;;;9.09;70.67
61478;BME280;47345;52.334;10.392;2024-03-07T11:04:20;101833.61;;;9.00;70.81
61478;BME280;47345;52.334;10.392;2024-03-07T11:06:51;101830.30;;;9.09;69.96
61478;BME280;47345;52.334;10.392;2024-03-07T11:09:23;101827.95;;;9.40;69.49
61478;BME280;47345;52.334;10.392;2024-03-07T11:11:58;101822.59;;;9.69;67.21
61478;BME280;47345;52.334;10.392;2024-03-07T11:14:33;101823.23;;;9.84;66.86
61478;BME280;47345;52.334;10.392;2024-03-07T11:17:06;101819.42;;;9.88;66.48
61478;BME280;47345;52.334;10.392;2024-03-07T11:19:38;101817.83;;;9.85;66.23
61478;BME280;47345;52.334;10.392;2024-03-07T11:22:09;101814.56;;;9.81;65.36
61478;BME280;47345;52.334;10.392;2024-03-07T11:24:45;101812.99;;;9.81;64.40
61478;BME280;47345;52.334;10.392;2024-03-07T11:27:31;101813.05;;;9.84;63.67
61478;BME280;47345;52.334;10.392;2024-03-07T11:30:09;101809.59;;;9.88;63.48
61478;BME280;47345;52.334;10.392;2024-03-07T11:32:41;101804.52;;;10.07;62.81
61478;BME280;47345;52.334;10.392;2024-03-07T11:35:14;101805.02;;;10.16;61.63
61478;BME280;47345;52.334;10.392;2024-03-07T11:37:47;101802.89;;;10.04;61.59
61478;BME280;47345;52.334;10.392;2024-03-07T11:40:44;101803.23;;;9.80;62.94
61478;BME280;47345;52.334;10.392;2024-03-07T11:43:14;101801.11;;;9.44;64.17
61478;BME280;47345;52.334;10.392;2024-03-07T11:45:44;101802.27;;;9.22;65.00
61478;BME280;47345;52.334;10.392;2024-03-07T11:48:22;101792.61;;;9.12;65.25
61478;BME280;47345;52.334;10.392;2024-03-07T11:50:53;101789.38;;;9.02;65.47
61478;BME280;47345;52.334;10.392;2024-03-07T11:53:25;101788.64;;;8.88;65.25
61478;BME280;47345;52.334;10.392;2024-03-07T11:55:57;101789.60;;;8.79;65.27
61478;BME280;47345;52.334;10.392;2024-03-07T11:58:27;101786.84;;;8.83;65.06
61478;BME280;47345;52.334;10.392;2024-03-07T12:01:01;101781.37;;;9.02;65.16
61478;BME280;47345;52.334;10.392;2024-03-07T12:03:34;101781.27;;;9.30;65.17
61478;BME280;47345;52.334;10.392;2024-03-07T12:06:06;101774.47;;;9.59;64.19
61478;BME280;47345;52.334;10.392;2024-03-07T12:08:39;101773.45;;;9.78;62.88
61478;BME280;47345;52.334;10.392;2024-03-07T12:11:11;101771.35;;;9.80;62.27
61478;BME280;47345;52.334;10.392;2024-03-07T12:13:45;101770.63;;;9.72;61.89
61478;BME280;47345;52.334;10.392;2024-03-07T12:16:16;101770.66;;;9.62;63.38
61478;BME280;47345;52.334;10.392;2024-03-07T12:18:47;101769.17;;;9.50;61.75
61478;BME280;47345;52.334;10.392;2024-03-07T12:21:18;101768.15;;;9.39;62.53
61478;BME280;47345;52.334;10.392;2024-03-07T12:23:50;101768.48;;;9.39;62.78
61478;BME280;47345;52.334;10.392;2024-03-07T12:26:22;101761.86;;;9.40;62.24
61478;BME280;47345;52.334;10.392;2024-03-07T12:28:55;101754.58;;;9.42;62.40
61478;BME280;47345;52.334;10.392;2024-03-07T12:31:26;101760.66;;;9.43;62.28
61478;BME280;47345;52.334;10.392;2024-03-07T12:33:57;101756.14;;;9.46;62.89
61478;BME280;47345;52.334;10.392;2024-03-07T12:36:29;101753.96;;;9.51;62.19
61478;BME280;47345;52.334;10.392;2024-03-07T12:39:04;101753.98;;;9.43;61.97
61478;BME280;47345;52.334;10.392;2024-03-07T12:41:48;101754.60;;;9.34;62.99
61478;BME280;47345;52.334;10.392;2024-03-07T12:44:22;101753.23;;;9.28;63.06
61478;BME280;47345;52.334;10.392;2024-03-07T12:46:54;101752.23;;;9.24;62.79
61478;BME280;47345;52.334;10.392;2024-03-07T12:49:25;101746.96;;;9.32;63.17
61478;BME280;47345;52.334;10.392;2024-03-07T12:51:56;101746.07;;;9.50;62.53
61478;BME280;47345;52.334;10.392;2024-03-07T12:54:28;101749.09;;;9.60;59.73
61478;BME280;47345;52.334;10.392;2024-03-07T12:56:59;101748.88;;;9.63;58.90
61478;BME280;47345;52.334;10.392;2024-03-07T12:59:30;101749.59;;;9.65;58.33
61478;BME280;47345;52.334;10.392;2024-03-07T13:02:00;101752.20;;;9.69;58.19
61478;BME280;47345;52.334;10.392;2024-03-07T13:04:32;101749.89;;;9.77;57.95
61478;BME280;47345;52.334;10.392;2024-03-07T13:07:02;101747.25;;;9.87;57.78
61478;BME280;47345;52.334;10.392;2024-03-07T13:09:33;101741.70;;;10.04;58.04
61478;BME280;47345;52.334;10.392;2024-03-07T13:12:05;101740.93;;;10.21;58.55
61478;BME280;47345;52.334;10.392;2024-03-07T13:14:39;101739.73;;;10.28;58.74